createdAt,value
2018-03-15T00:01:59.373Z,101423.11
2018-03-15T00:04:34.552Z,101418.50
2018-03-15T00:09:49.331Z,101430.61
2018-03-15T00:12:18.905Z,101429.37
2018-03-15T00:14:48.775Z,101432.70
2018-03-15T00:17:19.325Z,101431.88
2018-03-15T00:19:49.893Z,101438.54
2018-03-15T00:22:19.449Z,101441.06
2018-03-15T00:24:48.857Z,101438.96
2018-03-15T00:27:17.889Z,101438.13
2018-03-15T00:29:47.427Z,101442.75
2018-03-15T00:32:17.234Z,101442.34
2018-03-15T00:34:46.253Z,101441.09
2018-03-15T00:37:16.121Z,101444.00
2018-03-15T00:39:45.350Z,101443.16
2018-03-15T00:42:15.259Z,101441.06
2018-03-15T00:44:44.514Z,101438.55
2018-03-15T00:47:13.649Z,101441.91
2018-03-15T00:49:42.912Z,101446.09
2018-03-15T00:52:11.932Z,101444.41
2018-03-15T00:54:40.953Z,101440.64
2018-03-15T00:57:10.712Z,101446.93
2018-03-15T00:59:39.906Z,101440.23
2018-03-15T01:02:08.964Z,101446.48
2018-03-15T01:04:37.993Z,101442.31
2018-03-15T01:07:07.374Z,101440.66
2018-03-15T01:09:36.447Z,101432.28
2018-03-15T01:12:05.475Z,101439.82
2018-03-15T01:14:34.812Z,101436.04
2018-03-15T01:17:04.650Z,101432.30
2018-03-15T01:19:33.669Z,101437.73
2018-03-15T01:22:02.694Z,101431.89
2018-03-15T01:24:31.812Z,101433.14
2018-03-15T01:27:01.505Z,101430.22
2018-03-15T01:29:30.813Z,101429.78
2018-03-15T01:32:00.016Z,101432.71
2018-03-15T01:34:29.045Z,101433.14
2018-03-15T01:36:58.064Z,101423.52
2018-03-15T01:39:27.080Z,101423.95
2018-03-15T01:41:56.641Z,101421.42
2018-03-15T01:44:26.240Z,101424.77
2018-03-15T01:46:55.384Z,101413.49
2018-03-15T01:49:25.163Z,101419.75
2018-03-15T01:51:54.205Z,101420.16
2018-03-15T01:54:23.248Z,101423.09
2018-03-15T01:56:53.530Z,101417.67
2018-03-15T01:59:22.605Z,101424.36
2018-03-15T02:01:51.622Z,101420.19
2018-03-15T02:04:21.051Z,101421.02
2018-03-15T02:06:50.885Z,101416.86
2018-03-15T02:09:20.160Z,101421.03
2018-03-15T02:11:49.236Z,101426.05
2018-03-15T02:14:18.865Z,101428.95
2018-03-15T02:16:48.023Z,101416.86
2018-03-15T02:19:17.139Z,101419.34
2018-03-15T02:21:46.570Z,101413.91
2018-03-15T02:24:15.597Z,101411.83
2018-03-15T02:26:44.626Z,101411.43
2018-03-15T02:29:13.660Z,101418.94
2018-03-15T02:31:42.952Z,101417.67
2018-03-15T02:34:12.066Z,101417.69
2018-03-15T02:36:42.135Z,101416.84
2018-03-15T02:39:11.481Z,101420.60
2018-03-15T02:41:40.505Z,101420.17
2018-03-15T02:44:10.708Z,101420.18
2018-03-15T02:46:40.790Z,101422.69
2018-03-15T02:49:09.807Z,101427.29
2018-03-15T02:51:38.826Z,101426.87
2018-03-15T02:54:08.814Z,101427.70
2018-03-15T02:56:37.937Z,101424.77
2018-03-15T02:59:07.125Z,101425.61
2018-03-15T03:01:36.561Z,101436.06
2018-03-15T03:04:05.761Z,101433.95
2018-03-15T03:06:35.764Z,101437.31
2018-03-15T03:09:05.052Z,101434.80
2018-03-15T03:11:34.849Z,101437.73
2018-03-15T03:14:03.996Z,101442.31
2018-03-15T03:16:34.094Z,101439.80
2018-03-15T03:19:03.498Z,101445.66
2018-03-15T03:21:33.166Z,101443.98
2018-03-15T03:24:02.713Z,101438.97
2018-03-15T03:26:31.980Z,101439.41
2018-03-15T03:29:01.253Z,101443.57
2018-03-15T03:31:30.986Z,101448.17
2018-03-15T03:34:00.512Z,101449.84
2018-03-15T03:36:30.721Z,101451.08
2018-03-15T03:38:59.859Z,101453.59
2018-03-15T03:41:28.901Z,101452.31
2018-03-15T03:43:58.546Z,101457.76
2018-03-15T03:46:27.687Z,101459.84
2018-03-15T03:48:57.921Z,101463.19
2018-03-15T03:51:27.228Z,101461.93
2018-03-15T03:53:56.301Z,101459.41
2018-03-15T03:56:26.310Z,101461.08
2018-03-15T03:58:56.531Z,101458.57
2018-03-15T04:01:26.666Z,101464.41
2018-03-15T04:03:55.825Z,101468.61
2018-03-15T04:06:25.649Z,101469.42
2018-03-15T04:08:54.683Z,101472.34
2018-03-15T04:11:23.778Z,101474.83
2018-03-15T04:13:52.860Z,101473.17
2018-03-15T04:16:21.970Z,101473.98
2018-03-15T04:18:51.892Z,101475.64
2018-03-15T04:21:21.403Z,101484.83
2018-03-15T04:23:50.555Z,101482.74
2018-03-15T04:26:19.717Z,101488.14
2018-03-15T04:28:49.156Z,101483.59
2018-03-15T04:31:18.182Z,101476.08
2018-03-15T04:33:47.247Z,101480.27
2018-03-15T04:36:16.390Z,101482.34
2018-03-15T04:38:45.490Z,101482.73
2018-03-15T04:41:14.508Z,101489.01
2018-03-15T04:43:43.877Z,101485.23
2018-03-15T04:46:12.920Z,101491.93
2018-03-15T04:48:42.165Z,101489.42
2018-03-15T04:51:11.185Z,101493.20
2018-03-15T04:53:40.599Z,101497.36
2018-03-15T04:56:10.046Z,101498.60
2018-03-15T04:58:39.404Z,101493.59
2018-03-15T05:01:08.451Z,101497.32
2018-03-15T05:03:37.485Z,101498.98
2018-03-15T05:06:06.745Z,101493.12
2018-03-15T05:08:36.272Z,101500.23
2018-03-15T05:11:06.015Z,101500.27
2018-03-15T05:13:35.504Z,101506.95
2018-03-15T05:16:04.564Z,101499.42
2018-03-15T05:18:33.803Z,101495.64
2018-03-15T05:21:04.228Z,101496.50
2018-03-15T05:23:34.258Z,101496.49
2018-03-15T05:26:03.305Z,101496.90
2018-03-15T05:28:32.451Z,101494.41
2018-03-15T05:31:02.005Z,101501.50
2018-03-15T05:33:31.980Z,101504.83
2018-03-15T05:36:02.790Z,101503.15
2018-03-15T05:38:32.133Z,101505.22
2018-03-15T05:41:01.310Z,101496.05
2018-03-15T05:43:31.525Z,101498.97
2018-03-15T05:46:01.512Z,101503.52
2018-03-15T05:48:31.019Z,101507.70
2018-03-15T05:51:00.507Z,101506.85
2018-03-15T05:53:29.553Z,101503.92
2018-03-15T05:55:58.721Z,101509.78
2018-03-15T05:58:28.300Z,101511.02
2018-03-15T06:00:57.845Z,101517.28
2018-03-15T06:03:27.424Z,101517.67
2018-03-15T06:05:56.534Z,101514.34
2018-03-15T06:08:25.747Z,101526.41
2018-03-15T06:10:54.831Z,101518.08
2018-03-15T06:13:24.434Z,101521.83
2018-03-15T06:15:54.264Z,101515.19
2018-03-15T06:18:23.501Z,101516.05
2018-03-15T06:20:53.010Z,101516.44
2018-03-15T06:23:22.181Z,101512.25
2018-03-15T06:25:51.739Z,101518.49
2018-03-15T06:28:20.776Z,101515.16
2018-03-15T06:30:49.897Z,101513.94
2018-03-15T06:33:18.985Z,101513.14
2018-03-15T06:35:48.726Z,101515.22
2018-03-15T06:38:17.774Z,101516.47
2018-03-15T06:40:46.819Z,101519.38
2018-03-15T06:43:16.112Z,101518.15
2018-03-15T06:45:45.147Z,101519.38
2018-03-15T06:48:14.225Z,101522.34
2018-03-15T06:50:43.505Z,101520.30
2018-03-15T06:53:12.671Z,101526.98
2018-03-15T06:55:41.677Z,101524.89
2018-03-15T06:58:10.758Z,101523.64
2018-03-15T07:00:39.785Z,101524.08
2018-03-15T07:03:08.864Z,101521.16
2018-03-15T07:05:38.240Z,101518.23
2018-03-15T07:08:07.672Z,101525.73
2018-03-15T07:10:37.409Z,101527.44
2018-03-15T07:13:06.962Z,101526.58
2018-03-15T07:15:36.328Z,101525.37
2018-03-15T07:18:06.142Z,101518.67
2018-03-15T07:20:35.638Z,101519.09
2018-03-15T07:23:04.672Z,101523.30
2018-03-15T07:25:33.758Z,101529.56
2018-03-15T07:28:04.273Z,101523.31
2018-03-15T07:30:34.216Z,101522.48
2018-03-15T07:33:03.484Z,101527.08
2018-03-15T07:35:32.868Z,101529.14
2018-03-15T07:38:01.893Z,101529.58
2018-03-15T07:40:31.366Z,101527.48
2018-03-15T07:43:00.392Z,101532.91
2018-03-15T07:45:30.116Z,101532.08
2018-03-15T07:47:59.492Z,101529.16
2018-03-15T07:50:29.288Z,101534.60
2018-03-15T07:52:58.699Z,101534.60
2018-03-15T07:55:28.087Z,101532.95
2018-03-15T07:57:57.399Z,101532.97
2018-03-15T08:00:26.531Z,101543.40
2018-03-15T08:02:55.894Z,101541.69
2018-03-15T08:05:25.337Z,101540.85
2018-03-15T08:07:54.366Z,101547.53
2018-03-15T08:10:24.604Z,101541.65
2018-03-15T08:12:53.649Z,101538.31
2018-03-15T08:15:22.670Z,101541.64
2018-03-15T08:17:51.697Z,101543.72
2018-03-15T08:20:21.047Z,101548.75
2018-03-15T08:22:51.594Z,101545.86
2018-03-15T08:25:20.878Z,101550.02
2018-03-15T08:27:51.106Z,101555.44
2018-03-15T08:30:20.895Z,101553.34
2018-03-15T08:32:51.769Z,101548.33
2018-03-15T08:35:21.342Z,101553.77
2018-03-15T08:37:51.512Z,101549.59
2018-03-15T08:40:20.541Z,101547.53
2018-03-15T08:42:49.964Z,101551.28
2018-03-15T08:45:19.416Z,101556.34
2018-03-15T08:47:48.453Z,101553.84
2018-03-15T08:50:18.392Z,101548.40
2018-03-15T08:52:47.636Z,101548.81
2018-03-15T08:55:17.599Z,101545.50
2018-03-15T08:57:46.629Z,101549.23
2018-03-15T09:00:16.707Z,101546.75
2018-03-15T09:02:45.841Z,101557.17
2018-03-15T09:05:16.040Z,101545.07
2018-03-15T09:07:45.069Z,101545.06
2018-03-15T09:10:15.349Z,101542.94
2018-03-15T09:12:45.817Z,101533.34
2018-03-15T09:15:15.125Z,101536.25
2018-03-15T09:17:45.494Z,101539.19
2018-03-15T09:20:15.774Z,101546.31
2018-03-15T09:22:44.928Z,101536.29
2018-03-15T09:25:14.234Z,101546.34
2018-03-15T09:27:44.630Z,101542.14
2018-03-15T09:30:13.842Z,101545.05
2018-03-15T09:32:43.742Z,101550.48
2018-03-15T09:35:13.027Z,101547.15
2018-03-15T09:37:42.317Z,101545.88
2018-03-15T09:40:11.504Z,101542.97
2018-03-15T09:42:40.587Z,101533.80
2018-03-15T09:45:09.630Z,101541.75
2018-03-15T09:47:38.863Z,101546.77
2018-03-15T09:50:08.353Z,101540.09
2018-03-15T09:52:37.388Z,101538.83
2018-03-15T09:55:06.461Z,101543.39
2018-03-15T09:57:36.122Z,101535.47
2018-03-15T10:00:05.855Z,101543.00
2018-03-15T10:02:34.893Z,101545.51
2018-03-15T10:05:03.966Z,101538.00
2018-03-15T10:07:33.798Z,101538.00
2018-03-15T10:10:02.889Z,101541.77
2018-03-15T10:12:32.350Z,101535.08
2018-03-15T10:15:02.168Z,101536.35
2018-03-15T10:17:31.651Z,101531.30
2018-03-15T10:20:00.705Z,101534.64
2018-03-15T10:22:30.177Z,101535.48
2018-03-15T10:25:01.198Z,101538.00
2018-03-15T10:27:30.780Z,101537.59
2018-03-15T10:30:00.142Z,101530.89
2018-03-15T10:32:29.538Z,101533.83
2018-03-15T10:35:04.272Z,101537.18
2018-03-15T10:37:33.621Z,101533.84
2018-03-15T10:40:03.284Z,101529.66
2018-03-15T10:42:33.194Z,101537.99
2018-03-15T10:45:02.904Z,101543.04
2018-03-15T10:47:31.948Z,101543.87
2018-03-15T10:50:01.586Z,101537.59
2018-03-15T10:52:30.676Z,101544.70
2018-03-15T10:55:00.921Z,101541.77
2018-03-15T10:57:30.434Z,101548.45
2018-03-15T11:00:00.517Z,101552.66
2018-03-15T11:02:35.834Z,101540.93
2018-03-15T11:05:05.087Z,101547.62
2018-03-15T11:07:42.213Z,101544.71
2018-03-15T11:10:12.010Z,101552.22
2018-03-15T11:12:42.264Z,101542.60
2018-03-15T11:15:12.258Z,101550.12
2018-03-15T11:17:41.916Z,101555.56
2018-03-15T11:20:12.448Z,101558.49
2018-03-15T11:22:41.508Z,101560.58
2018-03-15T11:25:10.859Z,101559.33
2018-03-15T11:27:39.909Z,101554.72
2018-03-15T11:30:11.482Z,101556.83
2018-03-15T11:32:40.948Z,101554.29
2018-03-15T11:35:10.557Z,101551.78
2018-03-15T11:37:39.612Z,101558.91
2018-03-15T11:40:09.079Z,101558.92
2018-03-15T11:42:39.129Z,101559.73
2018-03-15T11:45:08.738Z,101558.52
2018-03-15T11:47:38.765Z,101555.16
2018-03-15T11:50:08.268Z,101557.66
2018-03-15T11:52:38.096Z,101562.26
2018-03-15T11:55:07.551Z,101567.69
2018-03-15T11:57:36.598Z,101564.34
2018-03-15T12:00:05.768Z,101569.78
2018-03-15T12:02:35.165Z,101575.20
2018-03-15T12:05:04.234Z,101569.75
2018-03-15T12:07:34.052Z,101563.89
2018-03-15T12:10:03.129Z,101565.59
2018-03-15T12:12:32.737Z,101561.41
2018-03-15T12:15:01.806Z,101555.99
2018-03-15T12:17:31.969Z,101562.67
2018-03-15T12:20:01.263Z,101560.58
2018-03-15T12:22:30.363Z,101558.08
2018-03-15T12:25:00.174Z,101556.83
2018-03-15T12:27:29.208Z,101557.67
2018-03-15T12:29:59.246Z,101558.91
2018-03-15T12:32:28.514Z,101556.41
2018-03-15T12:34:58.102Z,101552.23
2018-03-15T12:37:27.426Z,101549.31
2018-03-15T12:39:56.527Z,101545.13
2018-03-15T12:42:26.085Z,101550.13
2018-03-15T12:44:55.596Z,101555.13
2018-03-15T12:47:24.825Z,101552.20
2018-03-15T12:49:53.925Z,101560.95
2018-03-15T12:52:23.823Z,101561.38
2018-03-15T12:54:52.894Z,101564.28
2018-03-15T12:57:22.090Z,101565.95
2018-03-15T12:59:51.619Z,101563.88
2018-03-15T13:02:20.734Z,101559.67
2018-03-15T13:04:51.157Z,101559.65
2018-03-15T13:07:20.205Z,101567.59
2018-03-15T13:09:49.244Z,101560.50
2018-03-15T13:12:18.739Z,101562.58
2018-03-15T13:14:47.766Z,101560.95
2018-03-15T13:17:17.268Z,101570.11
2018-03-15T13:19:57.719Z,101553.81
2018-03-15T13:22:39.763Z,101562.16
2018-03-15T13:25:27.437Z,101564.66
2018-03-15T13:28:07.424Z,101548.77
2018-03-15T13:30:38.522Z,101553.78
2018-03-15T13:33:08.808Z,101563.77
2018-03-15T13:35:38.782Z,101564.22
2018-03-15T13:38:07.810Z,101555.83
2018-03-15T13:40:36.882Z,101558.34
2018-03-15T13:43:06.763Z,101556.67
2018-03-15T13:45:37.610Z,101554.98
2018-03-15T13:48:06.657Z,101549.98
2018-03-15T13:50:36.062Z,101554.95
2018-03-15T13:53:05.089Z,101562.95
2018-03-15T13:55:34.645Z,101561.25
2018-03-15T13:58:04.651Z,101565.37
2018-03-15T14:00:34.115Z,101569.54
2018-03-15T14:03:03.501Z,101571.63
2018-03-15T14:05:32.806Z,101574.58
2018-03-15T14:08:01.841Z,101564.97
2018-03-15T14:10:32.317Z,101562.00
2018-03-15T14:13:01.752Z,101567.00
2018-03-15T14:15:30.842Z,101569.09
2018-03-15T14:18:00.313Z,101567.00
2018-03-15T14:20:29.765Z,101569.89
2018-03-15T14:22:59.445Z,101568.28
2018-03-15T14:25:28.853Z,101567.02
2018-03-15T14:27:58.731Z,101569.95
2018-03-15T14:30:27.771Z,101563.23
2018-03-15T14:32:57.131Z,101576.56
2018-03-15T14:35:27.074Z,101570.30
2018-03-15T14:37:56.168Z,101566.15
2018-03-15T14:40:25.214Z,101575.30
2018-03-15T14:42:55.092Z,101563.55
2018-03-15T14:45:24.422Z,101564.42
2018-03-15T14:47:53.826Z,101563.55
2018-03-15T14:50:23.197Z,101563.60
2018-03-15T14:52:52.810Z,101556.05
2018-03-15T14:55:21.866Z,101561.91
2018-03-15T14:57:51.198Z,101564.45
2018-03-15T15:00:20.934Z,101563.61
2018-03-15T15:05:25.439Z,101558.14
2018-03-15T15:07:54.730Z,101561.03
2018-03-15T15:10:23.779Z,101563.55
2018-03-15T15:12:53.752Z,101561.05
2018-03-15T15:15:22.866Z,101561.89
2018-03-15T15:17:51.909Z,101569.83
2018-03-15T15:20:22.698Z,101566.50
2018-03-15T15:22:51.853Z,101562.75
2018-03-15T15:25:22.068Z,101563.55
2018-03-15T15:27:51.159Z,101561.05
2018-03-15T15:30:20.713Z,101566.91
2018-03-15T15:32:49.747Z,101567.73
2018-03-15T15:35:19.216Z,101571.08
2018-03-15T15:37:48.260Z,101566.05
2018-03-15T15:40:17.317Z,101571.86
2018-03-15T15:42:46.400Z,101571.81
2018-03-15T15:45:15.425Z,101565.58
2018-03-15T15:47:44.906Z,101557.20
2018-03-15T15:50:15.235Z,101560.52
2018-03-15T15:52:45.630Z,101565.53
2018-03-15T15:55:15.276Z,101566.78
2018-03-15T15:57:45.318Z,101560.09
2018-03-15T16:00:15.183Z,101563.86
2018-03-15T16:02:45.502Z,101568.42
2018-03-15T16:05:14.666Z,101555.06
2018-03-15T16:07:44.218Z,101567.53
2018-03-15T16:10:13.622Z,101560.85
2018-03-15T16:12:43.010Z,101565.45
2018-03-15T16:15:12.221Z,101565.87
2018-03-15T16:17:42.267Z,101573.75
2018-03-15T16:20:11.314Z,101572.06
2018-03-15T16:22:40.928Z,101574.58
2018-03-15T16:25:11.053Z,101576.64
2018-03-15T16:27:40.203Z,101578.33
2018-03-15T16:30:10.182Z,101575.83
2018-03-15T16:32:39.209Z,101587.09
2018-03-15T16:35:08.248Z,101583.34
2018-03-15T16:37:38.270Z,101587.05
2018-03-15T16:40:07.683Z,101583.30
2018-03-15T16:42:36.698Z,101587.87
2018-03-15T16:45:06.060Z,101595.39
2018-03-15T16:47:35.253Z,101602.87
2018-03-15T16:50:05.380Z,101594.58
2018-03-15T16:52:35.652Z,101595.41
2018-03-15T16:55:05.387Z,101593.31
2018-03-15T16:57:34.850Z,101603.30
2018-03-15T17:00:04.004Z,101592.92
2018-03-15T17:02:33.403Z,101596.62
2018-03-15T17:05:03.114Z,101591.19
2018-03-15T17:07:32.364Z,101587.84
2018-03-15T17:10:01.963Z,101597.47
2018-03-15T17:12:31.207Z,101594.97
2018-03-15T17:15:01.214Z,101595.39
2018-03-15T17:17:31.115Z,101600.82
2018-03-15T17:20:00.324Z,101599.17
2018-03-15T17:22:30.617Z,101602.50
2018-03-15T17:25:00.220Z,101605.86
2018-03-15T17:27:30.932Z,101606.70
2018-03-15T17:30:00.170Z,101611.77
2018-03-15T17:32:29.284Z,101597.59
2018-03-15T17:34:58.654Z,101609.70
2018-03-15T17:37:27.971Z,101617.60
2018-03-15T17:39:57.034Z,101606.31
2018-03-15T17:42:27.787Z,101605.50
2018-03-15T17:44:57.194Z,101608.44
2018-03-15T17:47:26.364Z,101603.43
2018-03-15T17:49:55.601Z,101604.27
2018-03-15T17:52:25.312Z,101602.17
2018-03-15T17:54:54.369Z,101604.67
2018-03-15T17:57:23.418Z,101605.55
2018-03-15T17:59:52.493Z,101604.72
2018-03-15T18:02:21.749Z,101601.81
2018-03-15T18:04:51.930Z,101601.39
2018-03-15T18:07:21.090Z,101608.05
2018-03-15T18:09:50.159Z,101610.52
2018-03-15T18:12:19.212Z,101610.97
2018-03-15T18:14:48.264Z,101608.45
2018-03-15T18:17:17.500Z,101610.14
2018-03-15T18:19:46.913Z,101603.45
2018-03-15T18:22:15.976Z,101603.47
2018-03-15T18:24:45.318Z,101607.63
2018-03-15T18:27:14.429Z,101612.25
2018-03-15T18:29:43.755Z,101601.38
2018-03-15T18:32:13.123Z,101603.05
2018-03-15T18:34:42.154Z,101609.28
2018-03-15T18:37:11.183Z,101608.05
2018-03-15T18:39:40.526Z,101616.80
2018-03-15T18:42:09.819Z,101609.68
2018-03-15T18:44:39.614Z,101615.95
2018-03-15T18:47:09.111Z,101610.11
2018-03-15T18:49:38.588Z,101613.04
2018-03-15T18:52:07.726Z,101600.52
2018-03-15T18:54:36.848Z,101607.59
2018-03-15T18:57:06.357Z,101600.52
2018-03-15T18:59:35.406Z,101599.27
2018-03-15T19:02:04.584Z,101602.17
2018-03-15T19:04:34.070Z,101608.03
2018-03-15T19:07:03.158Z,101610.13
2018-03-15T19:09:32.199Z,101612.61
2018-03-15T19:12:01.228Z,101606.75
2018-03-15T19:14:31.329Z,101615.52
2018-03-15T19:17:00.925Z,101619.30
2018-03-15T19:19:30.306Z,101620.98
2018-03-15T19:21:59.342Z,101613.05
2018-03-15T19:24:28.800Z,101610.55
2018-03-15T19:26:57.955Z,101613.88
2018-03-15T19:29:27.185Z,101616.80
2018-03-15T19:31:56.674Z,101621.42
2018-03-15T19:34:25.850Z,101623.95
2018-03-15T19:36:55.256Z,101625.18
2018-03-15T19:39:24.758Z,101628.55
2018-03-15T19:41:54.709Z,101622.70
2018-03-15T19:44:23.800Z,101628.95
2018-03-15T19:46:53.163Z,101632.71
2018-03-15T19:49:22.294Z,101633.55
2018-03-15T19:51:51.519Z,101626.91
2018-03-15T19:54:20.563Z,101626.97
2018-03-15T19:56:50.388Z,101629.04
2018-03-15T19:59:27.872Z,101627.76
2018-03-15T20:01:57.225Z,101629.83
2018-03-15T20:04:26.704Z,101636.52
2018-03-15T20:06:56.100Z,101636.52
2018-03-15T20:09:25.158Z,101637.75
2018-03-15T20:11:54.605Z,101636.52
2018-03-15T20:14:23.651Z,101629.02
2018-03-15T20:16:52.687Z,101642.35
2018-03-15T20:19:23.135Z,101636.08
2018-03-15T20:21:52.449Z,101641.09
2018-03-15T20:24:27.096Z,101643.16
2018-03-15T20:26:56.144Z,101643.16
2018-03-15T20:29:25.168Z,101641.09
2018-03-15T20:31:54.246Z,101640.27
2018-03-15T20:34:23.282Z,101642.38
2018-03-15T20:36:52.302Z,101638.21
2018-03-15T20:39:28.689Z,101634.05
2018-03-15T20:41:57.764Z,101632.37
2018-03-15T20:44:27.537Z,101641.11
2018-03-15T20:47:02.653Z,101648.22
2018-03-15T20:49:32.269Z,101646.56
2018-03-15T20:52:02.186Z,101641.16
2018-03-15T20:54:31.503Z,101642.02
2018-03-15T20:57:00.601Z,101643.23
2018-03-15T20:59:30.098Z,101639.05
2018-03-15T21:02:00.230Z,101639.91
2018-03-15T21:04:29.264Z,101640.31
2018-03-15T21:06:58.386Z,101641.98
2018-03-15T21:09:28.986Z,101635.70
2018-03-15T21:11:59.373Z,101641.55
2018-03-15T21:14:28.686Z,101642.80
2018-03-15T21:16:59.932Z,101644.45
2018-03-15T21:19:30.339Z,101634.45
2018-03-15T21:21:59.853Z,101635.70
2018-03-15T21:24:29.303Z,101632.36
2018-03-15T21:26:58.834Z,101633.20
2018-03-15T21:29:28.610Z,101629.87
2018-03-15T21:31:58.700Z,101627.36
2018-03-15T21:34:28.268Z,101629.45
2018-03-15T21:36:57.331Z,101625.30
2018-03-15T21:39:26.376Z,101620.67
2018-03-15T21:41:55.413Z,101623.58
2018-03-15T21:44:24.850Z,101614.83
2018-03-15T21:46:54.763Z,101623.59
2018-03-15T21:49:23.803Z,101623.18
2018-03-15T21:51:53.342Z,101618.17
2018-03-15T21:54:22.462Z,101624.02
2018-03-15T21:56:51.715Z,101611.94
2018-03-15T21:59:21.343Z,101621.94
2018-03-15T22:01:50.508Z,101614.84
2018-03-15T22:04:19.600Z,101613.59
2018-03-15T22:06:49.406Z,101607.73
2018-03-15T22:09:18.845Z,101613.59
2018-03-15T22:11:48.171Z,101610.68
2018-03-15T22:14:18.150Z,101616.08
2018-03-15T22:16:47.706Z,101610.25
2018-03-15T22:19:17.598Z,101608.59
2018-03-15T22:21:47.042Z,101606.48
2018-03-15T22:24:17.165Z,101611.08
2018-03-15T22:26:47.500Z,101613.59
2018-03-15T22:29:17.312Z,101606.13
2018-03-15T22:31:46.480Z,101607.38
2018-03-15T22:34:16.200Z,101605.67
2018-03-15T22:36:45.403Z,101606.94
2018-03-15T22:39:14.529Z,101606.52
2018-03-15T22:41:44.154Z,101608.58
2018-03-15T22:44:13.280Z,101606.92
2018-03-15T22:46:43.043Z,101604.00
2018-03-15T22:49:12.105Z,101605.23
2018-03-15T22:51:42.052Z,101597.72
2018-03-15T22:54:12.600Z,101595.20
2018-03-15T22:56:41.885Z,101595.23
2018-03-15T22:59:11.139Z,101597.30
2018-03-15T23:01:40.433Z,101596.47
2018-03-15T23:04:09.851Z,101600.20
2018-03-15T23:06:38.917Z,101596.84
2018-03-15T23:09:08.955Z,101593.06
2018-03-15T23:11:37.984Z,101597.22
2018-03-15T23:14:07.734Z,101599.30
2018-03-15T23:16:36.931Z,101602.63
2018-03-15T23:19:06.062Z,101598.45
2018-03-15T23:21:35.173Z,101598.84
2018-03-15T23:24:04.465Z,101594.64
2018-03-15T23:26:34.025Z,101599.22
2018-03-15T23:29:03.520Z,101597.96
2018-03-15T23:31:32.748Z,101603.77
2018-03-15T23:34:02.278Z,101598.34
2018-03-15T23:36:31.792Z,101606.23
2018-03-15T23:39:01.472Z,101605.39
2018-03-15T23:41:30.627Z,101601.20
2018-03-15T23:44:00.520Z,101597.43
2018-03-15T23:46:31.856Z,101601.58
2018-03-15T23:49:01.994Z,101602.84
2018-03-15T23:51:31.702Z,101601.97
2018-03-15T23:54:01.360Z,101591.53
2018-03-15T23:56:30.426Z,101594.00
2018-03-15T23:58:59.538Z,101599.83
